ADDS METAR Data INFO
IDs: Format: Raw Decoded Include TAF

Data at: 1748 UTC 21 Oct 2017

KHZY 211653Z AUTO 16006KT 10SM CLR 19/07 A3029 RMK AO2 SLP255 T01890072
KHZY 211553Z AUTO 17007KT 10SM CLR 18/07 A3030 RMK AO2 SLP259 T01780067
KHZY 211453Z AUTO 17008KT 10SM CLR 16/07 A3031 RMK AO2 SLP263 T01610067 50007
KHZY 211353Z AUTO 16006KT 10SM CLR 13/07 A3031 RMK AO2 SLP264 T01330067
KHZY 211253Z AUTO 17004KT 10SM CLR 09/06 A3031 RMK AO2 SLP266 T00890056
KHZY 211153Z AUTO 00000KT 10SM CLR 08/04 A3029 RMK AO2 SLP258 T00780039 10111 20067 53011
KHZY 211053Z AUTO 00000KT 10SM CLR 07/04 A3028 RMK AO2 SLP254 T00720039
KHZY 210953Z AUTO 16006KT 10SM CLR 08/04 A3027 RMK AO2 SLP248 T00830044
KHZY 210853Z AUTO 00000KT 10SM CLR 09/04 A3026 RMK AO2 SLP244 T00890039 51008
KHZY 210753Z AUTO 18004KT 10SM CLR 09/04 A3025 RMK AO2 SLP242 T00940039
KHZY 210653Z AUTO 17006KT 10SM CLR 10/04 A3024 RMK AO2 SLP239 T01000039
KHZY 210553Z AUTO 16007KT 10SM CLR 11/04 A3023 RMK AO2 SLP235 T01060039 10144 20106 50002
KHZY 210453Z AUTO 16006KT 10SM CLR 11/04 A3024 RMK AO2 SLP238 T01110039 402220039
KHZY 210353Z AUTO 16006KT 10SM CLR 12/04 A3023 RMK AO2 SLP235 T01170039
KHZY 210253Z AUTO 16006KT 10SM CLR 12/04 A3022 RMK AO2 SLP234 T01220039 53003
KHZY 210153Z AUTO 16005KT 10SM CLR 13/03 A3022 RMK AO2 SLP234 T01280033
KHZY 210053Z AUTO 17005KT 10SM CLR 14/04 A3022 RMK AO2 SLP234 T01390039
KHZY 202353Z AUTO 17005KT 10SM CLR 13/05 A3021 RMK AO2 SLP235 T01330050 10222 20128 56005
KHZY 202253Z AUTO 17004KT 10SM CLR 14/06 A3021 RMK AO2 SLP234 T01390056
KHZY 202153Z AUTO 20005KT 10SM CLR 20/03 A3022 RMK AO2 SLP234 T02000033
KHZY 202053Z AUTO 23005KT 10SM CLR 22/02 A3023 RMK AO2 SLP236 T02170022 56014
KHZY 201953Z AUTO 20004KT 10SM CLR 22/01 A3024 RMK AO2 SLP240 T02170011
KHZY 201853Z AUTO VRB03KT 10SM CLR 21/M01 A3025 RMK AO2 SLP244 T02111006
KHZY 201753Z AUTO VRB04KT 10SM CLR 21/M01 A3027 RMK AO2 SLP250 T02061011 10206 20039 58016
KHZY 201653Z AUTO 16006KT 10SM CLR 19/01 A3029 RMK AO2 SLP257 T01940006
KHZY 201553Z AUTO 16005KT 10SM CLR 18/02 A3031 RMK AO2 SLP264 T01830017
KHZY 201453Z AUTO 18003KT 10SM CLR 16/08 A3032 RMK AO2 SLP266 T01610078 50010
KHZY 201353Z AUTO 00000KT 10SM CLR 12/09 A3032 RMK AO2 SLP268 T01170094
KHZY 201253Z AUTO 10003KT 10SM CLR 07/07 A3031 RMK AO2 SLP265 T00720072
KHZY 201153Z AUTO 00000KT 10SM CLR 04/04 A3029 RMK AO2 SLP258 T00440039 10083 20039 51018
KHZY 201053Z AUTO 00000KT 10SM CLR 05/04 A3027 RMK AO2 SLP251 T00500044
KHZY 200953Z AUTO 00000KT 9SM CLR 05/05 A3025 RMK AO2 SLP243 T00500050
KHZY 200853Z AUTO 00000KT 8SM CLR 06/05 A3023 RMK AO2 SLP237 T00560050 53012
KHZY 200753Z AUTO 00000KT 10SM CLR 06/06 A3021 RMK AO2 SLP229 T00610056
KHZY 200653Z AUTO 00000KT 8SM CLR 07/07 A3020 RMK AO2 SLP228 T00720072
KHZY 200603Z AUTO 00000KT 10SM CLR 08/07 A3020 RMK AO2 T00780072
KHZY 200555Z AUTO 00000KT 2SM BR CLR 08/08 A3020 RMK AO2 T00780078
KHZY 200553Z AUTO 00000KT 1SM BR CLR 08/08 A3020 RMK AO2 SLP225 T00830078 10161 20083 51009